Time;durP1;ratioP1;P1;durP2;ratioP2;P2;SDS_P1;SDS_P2;PMS_P1;PMS_P2;Temp;Humidity;BMP_temperature;BMP_pressure;BME280_temperature;BME280_humidity;BME280_pressure;Samples;Min_cycle;Max_cycle;Signal;HPM_P1;HPM_P2
2021/01/14 00:01:37;;;;;;;1.10;0.70;;;20.70;42.10;;;;;;6241534;28;20037;-74
2021/01/14 00:04:37;;;;;;;1.13;0.50;;;20.70;41.90;;;;;;6243017;28;20368;-75
2021/01/14 00:07:39;;;;;;;2.17;0.70;;;20.70;42.10;;;;;;6242970;28;20021;-74
2021/01/14 00:10:39;;;;;;;1.20;0.60;;;20.70;41.90;;;;;;6242335;28;20523;-75
2021/01/14 00:13:40;;;;;;;1.13;0.57;;;20.70;41.90;;;;;;6242425;28;20040;-75
2021/01/14 00:16:41;;;;;;;0.60;0.50;;;20.60;42.00;;;;;;6242012;28;20044;-73
2021/01/14 00:19:41;;;;;;;0.65;0.57;;;20.70;42.40;;;;;;6242562;28;20415;-73
2021/01/14 00:22:42;;;;;;;0.77;0.60;;;20.70;42.20;;;;;;6242089;28;20079;-75
2021/01/14 00:25:43;;;;;;;0.90;0.60;;;20.70;42.40;;;;;;6242193;28;20033;-74
2021/01/14 00:28:43;;;;;;;0.82;0.60;;;20.60;41.80;;;;;;6242642;28;20095;-74
2021/01/14 00:31:44;;;;;;;0.43;0.43;;;20.60;42.20;;;;;;6241580;28;20069;-74
2021/01/14 00:34:44;;;;;;;0.88;0.70;;;20.60;42.20;;;;;;6242368;28;20037;-75
2021/01/14 00:37:51;;;;;;;0.60;0.40;;;20.60;42.00;;;;;;6242671;28;20460;-75
2021/01/14 00:40:51;;;;;;;0.60;0.50;;;20.60;42.30;;;;;;6241873;28;20033;-75
2021/01/14 00:43:52;;;;;;;0.43;0.40;;;20.60;42.10;;;;;;6242124;28;20400;-74
2021/01/14 00:46:56;;;;;;;1.13;0.52;;;20.60;42.40;;;;;;6241234;28;20025;-74
2021/01/14 00:49:57;;;;;;;1.30;0.60;;;20.60;42.50;;;;;;6242131;28;20498;-74
2021/01/14 00:52:58;;;;;;;1.10;0.60;;;20.60;42.30;;;;;;6241793;28;20108;-75
2021/01/14 00:55:58;;;;;;;1.70;0.70;;;20.60;42.30;;;;;;6241774;28;20045;-74
2021/01/14 00:58:59;;;;;;;0.82;0.50;;;20.60;42.30;;;;;;6242208;28;20361;-75
2021/01/14 01:02:00;;;;;;;1.50;0.50;;;20.60;42.00;;;;;;6241663;28;20033;-76
2021/01/14 01:05:00;;;;;;;1.08;0.70;;;20.60;42.20;;;;;;6242128;28;20072;-74
2021/01/14 01:08:01;;;;;;;1.00;0.68;;;20.60;42.10;;;;;;6241771;28;20041;-74
2021/01/14 01:11:01;;;;;;;0.50;0.38;;;20.60;41.90;;;;;;6241775;28;20046;-74
2021/01/14 01:14:03;;;;;;;1.95;0.80;;;20.50;41.90;;;;;;6241846;28;20108;-75
2021/01/14 01:17:03;;;;;;;0.73;0.52;;;20.50;41.70;;;;;;6241549;28;20091;-75
2021/01/14 01:20:05;;;;;;;1.20;0.50;;;20.50;42.00;;;;;;6242449;28;20041;-74
2021/01/14 01:23:05;;;;;;;1.30;0.60;;;20.50;41.90;;;;;;6241718;28;20112;-74
2021/01/14 01:26:06;;;;;;;0.40;0.40;;;20.50;41.80;;;;;;6241529;28;20041;-74
2021/01/14 01:29:06;;;;;;;0.70;0.65;;;20.50;42.00;;;;;;6241849;28;20029;-75
2021/01/14 01:32:07;;;;;;;0.80;0.50;;;20.50;41.90;;;;;;6241015;28;20029;-74
2021/01/14 01:35:08;;;;;;;0.65;0.55;;;20.50;41.80;;;;;;6241636;28;20022;-74
2021/01/14 01:38:09;;;;;;;0.82;0.60;;;20.50;41.90;;;;;;6244419;28;20034;-74
2021/01/14 01:41:09;;;;;;;0.60;0.50;;;20.50;42.00;;;;;;6246175;28;20055;-74
2021/01/14 01:44:10;;;;;;;0.47;0.40;;;20.50;42.10;;;;;;6245736;28;20061;-74
2021/01/14 01:47:11;;;;;;;1.00;0.60;;;20.50;41.80;;;;;;6245833;28;20387;-74
2021/01/14 01:50:12;;;;;;;0.65;0.40;;;20.50;41.90;;;;;;6245666;28;20040;-75
2021/01/14 01:53:13;;;;;;;1.02;0.50;;;20.50;42.00;;;;;;6245396;28;20075;-74
2021/01/14 01:56:16;;;;;;;0.50;0.40;;;20.50;41.90;;;;;;6245749;28;20034;-75
2021/01/14 01:59:19;;;;;;;0.52;0.40;;;20.50;41.80;;;;;;6245629;28;20518;-74
2021/01/14 02:02:27;;;;;;;0.47;0.43;;;20.50;42.30;;;;;;6244453;28;20025;-74
2021/01/14 02:05:27;;;;;;;0.40;0.40;;;20.50;41.80;;;;;;6245362;28;20025;-74
2021/01/14 02:08:42;;;;;;;0.65;0.50;;;20.50;42.00;;;;;;6245241;28;20040;-75
2021/01/14 02:11:47;;;;;;;0.85;0.60;;;20.50;42.20;;;;;;6244471;28;20037;-74
2021/01/14 02:14:53;;;;;;;0.68;0.45;;;20.40;41.80;;;;;;6245545;28;20404;-74
2021/01/14 02:17:54;;;;;;;0.40;0.40;;;20.40;41.80;;;;;;6244697;28;20040;-74
2021/01/14 02:21:00;;;;;;;0.55;0.47;;;20.40;41.50;;;;;;6243439;28;20041;-74
2021/01/14 02:24:18;;;;;;;1.00;0.50;;;20.40;41.90;;;;;;6245152;28;20396;-74
2021/01/14 02:27:19;;;;;;;0.35;0.35;;;20.40;42.10;;;;;;6244873;28;20049;-74
2021/01/14 02:30:22;;;;;;;0.30;0.30;;;20.40;41.90;;;;;;6245020;28;20037;-74
2021/01/14 02:33:22;;;;;;;0.43;0.43;;;20.40;41.90;;;;;;6244746;28;20434;-74
2021/01/14 02:36:25;;;;;;;0.30;0.30;;;20.40;41.80;;;;;;6245072;28;20041;-74
2021/01/14 02:39:25;;;;;;;0.40;0.40;;;20.40;41.80;;;;;;6244932;28;20748;-74
2021/01/14 02:42:26;;;;;;;0.68;0.47;;;20.40;42.00;;;;;;6244115;28;20056;-74
2021/01/14 02:45:26;;;;;;;0.40;0.40;;;20.40;42.80;;;;;;6244140;28;20731;-75
2021/01/14 02:48:32;;;;;;;0.43;0.30;;;20.40;42.10;;;;;;6244538;28;20041;-74
2021/01/14 02:51:47;;;;;;;0.30;0.30;;;20.40;42.10;;;;;;6242823;28;20044;-74
2021/01/14 02:54:48;;;;;;;0.47;0.30;;;20.40;41.90;;;;;;6244327;28;20037;-74
2021/01/14 02:57:49;;;;;;;0.75;0.45;;;20.40;41.90;;;;;;6243717;28;20069;-74
2021/01/14 03:00:50;;;;;;;0.47;0.40;;;20.40;41.90;;;;;;6244359;28;20052;-74
2021/01/14 03:03:50;;;;;;;0.40;0.40;;;20.40;41.90;;;;;;6243851;28;20116;-74
2021/01/14 03:06:51;;;;;;;0.77;0.52;;;20.40;41.80;;;;;;6244421;28;20464;-74
2021/01/14 03:09:51;;;;;;;0.40;0.30;;;20.40;42.00;;;;;;6243745;28;20038;-74
2021/01/14 03:12:52;;;;;;;0.80;0.47;;;20.30;41.80;;;;;;6242298;28;20387;-74
2021/01/14 03:15:52;;;;;;;0.75;0.40;;;20.30;41.50;;;;;;6240601;28;20183;-74
2021/01/14 03:18:53;;;;;;;0.40;0.40;;;20.30;41.50;;;;;;6243539;28;20553;-74
2021/01/14 03:22:00;;;;;;;0.70;0.50;;;20.30;41.60;;;;;;6243063;28;20041;-73
2021/01/14 03:25:01;;;;;;;0.40;0.40;;;20.30;41.70;;;;;;6242961;28;20510;-74
2021/01/14 03:28:01;;;;;;;0.40;0.40;;;20.30;42.00;;;;;;6243718;28;20034;-75
2021/01/14 03:31:02;;;;;;;0.52;0.45;;;20.30;41.60;;;;;;6243522;28;20182;-74
2021/01/14 03:34:02;;;;;;;0.40;0.40;;;20.30;41.40;;;;;;6242362;28;20049;-74
2021/01/14 03:37:05;;;;;;;0.50;0.43;;;20.30;41.70;;;;;;6243761;28;20121;-74
2021/01/14 03:40:07;;;;;;;0.68;0.32;;;20.30;41.50;;;;;;6242981;28;20036;-74
2021/01/14 03:43:07;;;;;;;0.40;0.30;;;20.30;42.00;;;;;;6242902;28;20566;-75
2021/01/14 03:46:16;;;;;;;0.60;0.50;;;20.30;41.70;;;;;;6242222;28;20033;-75
2021/01/14 03:49:17;;;;;;;0.68;0.50;;;20.30;41.80;;;;;;6243033;28;20388;-74
2021/01/14 03:52:18;;;;;;;0.60;0.40;;;20.30;41.80;;;;;;6243039;28;20033;-74
2021/01/14 03:55:18;;;;;;;0.63;0.40;;;20.30;41.70;;;;;;6243205;28;20392;-74
2021/01/14 03:58:19;;;;;;;0.85;0.40;;;20.30;41.70;;;;;;6243104;28;20033;-74
2021/01/14 04:01:22;;;;;;;0.50;0.43;;;20.30;41.40;;;;;;6242280;28;20034;-74
2021/01/14 04:04:23;;;;;;;0.52;0.40;;;20.30;41.90;;;;;;6242878;28;20033;-74
2021/01/14 04:07:23;;;;;;;0.35;0.30;;;20.30;41.70;;;;;;6242758;28;20044;-74
2021/01/14 04:10:24;;;;;;;0.30;0.30;;;20.30;42.10;;;;;;6242556;28;20702;-74
2021/01/14 04:13:24;;;;;;;0.90;0.45;;;20.30;41.70;;;;;;6242604;28;20044;-74
2021/01/14 04:16:25;;;;;;;0.30;0.30;;;20.30;41.80;;;;;;6242565;28;20029;-74
2021/01/14 04:19:25;;;;;;;0.50;0.50;;;20.30;41.90;;;;;;6241976;28;20032;-74
2021/01/14 04:22:26;;;;;;;1.33;0.60;;;20.30;42.20;;;;;;6242457;28;20033;-74
2021/01/14 04:25:30;;;;;;;0.30;0.30;;;20.30;41.80;;;;;;6242387;28;20119;-74
2021/01/14 04:28:30;;;;;;;0.30;0.30;;;20.30;41.90;;;;;;6242626;28;20033;-74
2021/01/14 04:31:32;;;;;;;0.68;0.50;;;20.30;41.90;;;;;;6241581;28;20105;-75
2021/01/14 04:34:32;;;;;;;0.65;0.40;;;20.30;41.70;;;;;;6242310;28;20487;-75
2021/01/14 04:37:33;;;;;;;0.43;0.43;;;20.30;42.00;;;;;;6241938;28;20350;-75
2021/01/14 04:40:33;;;;;;;1.00;0.40;;;20.20;41.80;;;;;;6238471;28;20045;-74
2021/01/14 04:43:34;;;;;;;0.57;0.40;;;20.20;41.70;;;;;;6242785;28;20082;-74
2021/01/14 04:46:39;;;;;;;1.05;0.50;;;20.20;41.60;;;;;;6242361;28;20396;-74
2021/01/14 04:49:40;;;;;;;0.73;0.60;;;20.20;41.60;;;;;;6241864;28;20417;-75
2021/01/14 04:52:42;;;;;;;0.68;0.38;;;20.20;42.10;;;;;;6242098;28;20045;-75
2021/01/14 04:55:44;;;;;;;1.20;0.60;;;20.20;41.90;;;;;;6241751;28;20234;-74
2021/01/14 04:58:47;;;;;;;0.95;0.50;;;20.20;42.10;;;;;;6242249;28;20026;-74
2021/01/14 05:01:51;;;;;;;1.25;0.50;;;20.30;42.00;;;;;;6241213;28;20025;-75
2021/01/14 05:04:53;;;;;;;0.45;0.45;;;20.30;42.20;;;;;;6241847;28;20112;-74
2021/01/14 05:08:05;;;;;;;0.73;0.60;;;20.20;42.80;;;;;;6241778;28;20037;-74
2021/01/14 05:11:05;;;;;;;0.63;0.40;;;20.30;41.30;;;;;;6241401;28;20057;-74
2021/01/14 05:14:07;;;;;;;0.90;0.45;;;20.30;41.20;;;;;;6246087;28;20037;-74
2021/01/14 05:17:07;;;;;;;1.67;0.60;;;20.30;41.20;;;;;;6246723;28;20033;-74
2021/01/14 05:20:08;;;;;;;0.57;0.40;;;20.30;41.30;;;;;;6246930;28;20080;-74
2021/01/14 05:23:10;;;;;;;0.50;0.50;;;20.30;41.20;;;;;;6246097;28;20117;-73
2021/01/14 05:26:11;;;;;;;0.55;0.50;;;20.40;41.30;;;;;;6246213;28;20068;-74
2021/01/14 05:29:17;;;;;;;0.60;0.50;;;20.40;41.30;;;;;;6244959;28;20506;-74
2021/01/14 05:32:35;;;;;;;0.90;0.43;;;20.40;41.50;;;;;;6245170;28;20033;-75
2021/01/14 05:35:36;;;;;;;1.23;0.65;;;20.40;41.50;;;;;;6245939;28;20037;-74
2021/01/14 05:38:36;;;;;;;2.35;0.98;;;20.40;41.40;;;;;;6246379;28;20511;-74
2021/01/14 05:41:37;;;;;;;0.93;0.70;;;20.40;41.50;;;;;;6245201;28;20045;-75
2021/01/14 05:44:42;;;;;;;0.50;0.50;;;20.40;41.50;;;;;;6245604;28;20057;-74
2021/01/14 05:47:42;;;;;;;0.80;0.65;;;20.40;41.70;;;;;;6245838;28;20036;-74
2021/01/14 05:50:47;;;;;;;1.77;0.65;;;20.50;41.70;;;;;;6245298;28;20045;-74
2021/01/14 05:54:02;;;;;;;0.82;0.68;;;20.50;41.70;;;;;;6245201;28;20048;-74
2021/01/14 05:57:11;;;;;;;0.65;0.60;;;20.40;42.00;;;;;;6243784;28;20388;-74
2021/01/14 06:00:13;;;;;;;1.10;0.80;;;20.40;41.60;;;;;;6245626;28;20037;-74
2021/01/14 06:03:30;;;;;;;0.82;0.68;;;20.50;41.70;;;;;;6244737;28;20037;-74
2021/01/14 06:06:31;;;;;;;1.13;0.63;;;20.50;41.70;;;;;;6244197;28;20032;-74
2021/01/14 06:09:41;;;;;;;0.88;0.50;;;20.50;41.80;;;;;;6245869;28;20046;-75
2021/01/14 06:12:49;;;;;;;0.65;0.60;;;20.60;41.70;;;;;;6244472;28;20038;-74
2021/01/14 06:15:58;;;;;;;0.85;0.60;;;20.70;41.60;;;;;;6245274;28;20504;-74
2021/01/14 06:19:07;;;;;;;1.17;0.70;;;20.80;41.50;;;;;;6244477;28;20246;-74
2021/01/14 06:22:07;;;;;;;0.80;0.63;;;20.90;41.70;;;;;;6243911;28;20044;-74
2021/01/14 06:25:08;;;;;;;0.77;0.70;;;20.90;41.60;;;;;;6244915;28;20116;-74
2021/01/14 06:28:09;;;;;;;1.10;0.80;;;20.90;41.50;;;;;;6244119;28;20037;-74
2021/01/14 06:31:09;;;;;;;0.80;0.63;;;21.00;41.50;;;;;;6244368;28;20040;-75
2021/01/14 06:34:14;;;;;;;0.88;0.70;;;21.00;41.40;;;;;;6244354;28;20099;-75
2021/01/14 06:37:19;;;;;;;1.25;1.00;;;21.10;41.60;;;;;;6244965;28;20526;-75
2021/01/14 06:40:28;;;;;;;0.95;0.75;;;21.10;41.50;;;;;;6244991;28;20518;-74
2021/01/14 06:43:35;;;;;;;1.48;0.80;;;21.10;41.70;;;;;;6243906;28;20033;-74
2021/01/14 06:46:36;;;;;;;6.53;0.73;;;21.10;41.60;;;;;;6244224;28;20040;-74
2021/01/14 06:49:45;;;;;;;1.60;0.80;;;21.20;42.50;;;;;;6243925;28;20037;-76
2021/01/14 06:53:12;;;;;;;1.23;0.75;;;21.20;41.60;;;;;;6243536;28;20048;-74
2021/01/14 06:56:16;;;;;;;0.60;0.60;;;21.20;41.60;;;;;;6244456;28;20037;-75
2021/01/14 06:59:17;;;;;;;1.23;0.77;;;21.30;41.60;;;;;;6243151;28;20112;-74
2021/01/14 07:02:47;;;;;;;0.60;0.60;;;21.30;41.70;;;;;;6244237;28;20357;-77
2021/01/14 07:05:53;;;;;;;1.92;0.98;;;21.30;42.10;;;;;;6249137;28;20037;-75
2021/01/14 07:09:13;;;;;;;2.38;1.05;;;21.40;41.80;;;;;;6244329;28;20045;-76
2021/01/14 07:12:15;;;;;;;0.73;0.70;;;21.40;41.50;;;;;;6240727;28;20033;-75
2021/01/14 07:15:17;;;;;;;1.13;0.63;;;21.50;41.50;;;;;;6245493;28;20488;-75
2021/01/14 07:18:27;;;;;;;6.35;0.85;;;21.50;41.40;;;;;;6243745;28;20030;-74
2021/01/14 07:21:46;;;;;;;4.00;0.88;;;21.60;41.50;;;;;;6242036;28;20030;-73
2021/01/14 07:24:49;;;;;;;7.78;0.80;;;21.60;41.60;;;;;;6244670;28;20040;-75
2021/01/14 07:27:51;;;;;;;4.22;0.68;;;21.60;41.80;;;;;;6245088;28;20029;-75
2021/01/14 07:30:51;;;;;;;5.15;0.93;;;21.70;41.80;;;;;;6245150;28;20080;-75
2021/01/14 07:33:53;;;;;;;1.25;0.60;;;21.70;41.60;;;;;;6244479;28;20039;-73
2021/01/14 07:36:54;;;;;;;2.20;0.60;;;21.80;41.70;;;;;;6245015;28;20042;-75
2021/01/14 07:39:56;;;;;;;4.55;0.70;;;21.80;41.50;;;;;;6241767;28;20056;-75
2021/01/14 07:42:58;;;;;;;2.13;0.80;;;21.80;41.40;;;;;;6243428;28;20065;-74
2021/01/14 07:46:15;;;;;;;4.13;0.65;;;21.80;41.40;;;;;;6245647;28;20032;-75
2021/01/14 07:49:28;;;;;;;8.82;1.02;;;21.90;41.80;;;;;;6246017;28;20579;-76
2021/01/14 07:52:33;;;;;;;2.50;0.77;;;21.90;41.80;;;;;;6247075;28;20148;-76
2021/01/14 07:55:35;;;;;;;10.13;1.05;;;21.90;41.50;;;;;;6245668;28;20033;-76
2021/01/14 07:58:45;;;;;;;5.43;0.85;;;21.90;41.40;;;;;;6245752;28;20076;-76
2021/01/14 08:02:04;;;;;;;4.82;1.20;;;21.90;41.40;;;;;;6243493;28;20120;-75
2021/01/14 08:05:04;;;;;;;2.40;0.70;;;21.90;41.30;;;;;;6244860;28;20036;-75
2021/01/14 08:08:27;;;;;;;2.75;0.93;;;21.90;41.80;;;;;;6240421;28;20033;-75
2021/01/14 08:11:48;;;;;;;1.00;0.70;;;21.90;41.60;;;;;;6244271;28;20522;-75
2021/01/14 08:14:48;;;;;;;4.82;0.93;;;21.90;41.90;;;;;;6244381;28;20087;-76
2021/01/14 08:17:50;;;;;;;3.13;0.70;;;21.90;41.50;;;;;;6244451;28;20021;-75
2021/01/14 08:21:28;;;;;;;5.13;0.98;;;21.90;41.60;;;;;;6245002;28;20029;-77
2021/01/14 08:24:55;;;;;;;3.63;0.90;;;21.90;41.60;;;;;;6245750;28;20072;-77
2021/01/14 08:28:03;;;;;;;2.15;0.77;;;21.90;41.70;;;;;;6244854;28;20100;-77
2021/01/14 08:31:04;;;;;;;3.10;0.80;;;21.90;41.50;;;;;;6242243;28;20038;-77
2021/01/14 08:34:09;;;;;;;3.65;1.15;;;21.90;41.70;;;;;;6244223;28;20112;-77
2021/01/14 08:37:09;;;;;;;0.80;0.60;;;21.90;41.50;;;;;;6245133;28;20442;-76
2021/01/14 08:40:18;;;;;;;4.00;0.60;;;22.00;42.00;;;;;;6242814;28;20095;-75
2021/01/14 08:43:20;;;;;;;1.58;0.70;;;21.90;42.00;;;;;;6244132;28;20030;-74
2021/01/14 08:46:40;;;;;;;2.47;0.85;;;21.90;42.00;;;;;;6246626;28;20035;-73
2021/01/14 08:49:43;;;;;;;2.75;0.60;;;21.90;41.80;;;;;;6247962;28;20072;-72
2021/01/14 08:52:44;;;;;;;6.22;1.00;;;21.90;41.90;;;;;;6249386;28;20391;-73
2021/01/14 08:55:55;;;;;;;3.75;0.73;;;21.90;42.20;;;;;;6248513;28;20037;-73
2021/01/14 08:59:09;;;;;;;41.22;2.70;;;21.80;41.50;;;;;;6249380;28;20278;-73
2021/01/14 09:02:10;;;;;;;30.77;2.83;;;21.70;40.50;;;;;;6249481;28;20025;-73
2021/01/14 09:05:13;;;;;;;25.70;1.40;;;21.70;41.00;;;;;;6249722;28;20125;-73
2021/01/14 09:08:16;;;;;;;12.65;1.25;;;21.70;41.30;;;;;;6248788;28;20380;-73
2021/01/14 09:11:26;;;;;;;17.25;1.40;;;21.80;41.50;;;;;;6248401;28;20037;-73
2021/01/14 09:14:27;;;;;;;6.72;1.30;;;21.80;41.80;;;;;;6250367;28;20065;-72
2021/01/14 09:17:27;;;;;;;8.10;1.65;;;21.80;41.80;;;;;;6251010;28;20025;-72
2021/01/14 09:20:29;;;;;;;6.97;1.00;;;21.80;41.70;;;;;;6248159;28;20037;-73
2021/01/14 09:23:34;;;;;;;5.90;1.08;;;21.80;41.90;;;;;;6247975;28;20033;-72
2021/01/14 09:26:40;;;;;;;7.55;1.40;;;21.80;41.80;;;;;;6248078;28;20491;-72
2021/01/14 09:29:41;;;;;;;7.40;1.58;;;21.80;41.70;;;;;;6247146;28;20045;-72
2021/01/14 09:32:41;;;;;;;6.85;1.30;;;21.80;42.00;;;;;;6246996;28;20029;-72
2021/01/14 09:35:42;;;;;;;4.28;1.20;;;21.80;41.70;;;;;;6247517;28;20387;-72
2021/01/14 09:38:48;;;;;;;2.75;1.05;;;21.80;41.90;;;;;;6247421;28;20078;-73
2021/01/14 09:41:56;;;;;;;3.58;1.20;;;21.70;42.10;;;;;;6246757;28;20075;-72
2021/01/14 09:44:57;;;;;;;2.83;1.00;;;21.70;41.80;;;;;;6247822;28;20030;-72
2021/01/14 09:47:58;;;;;;;3.40;1.13;;;21.70;41.80;;;;;;6247660;28;20029;-72
2021/01/14 09:51:06;;;;;;;5.55;1.27;;;21.70;41.60;;;;;;6247839;28;20037;-72
2021/01/14 09:54:08;;;;;;;2.78;1.05;;;21.70;41.30;;;;;;6247746;28;20018;-72
2021/01/14 09:57:09;;;;;;;2.63;1.00;;;21.70;42.20;;;;;;6247365;28;20091;-72
2021/01/14 10:00:13;;;;;;;5.22;1.10;;;21.80;41.00;;;;;;6248008;28;20033;-73
2021/01/14 10:03:17;;;;;;;19.50;1.55;;;21.80;40.80;;;;;;6243011;28;20049;-71
2021/01/14 10:06:21;;;;;;;10.98;1.30;;;21.90;41.10;;;;;;6247785;28;20033;-72
2021/01/14 10:09:21;;;;;;;6.80;1.30;;;21.90;41.50;;;;;;6247906;28;20049;-73
2021/01/14 10:12:22;;;;;;;18.88;1.50;;;21.90;41.20;;;;;;6247261;28;20022;-73
2021/01/14 10:15:22;;;;;;;7.22;1.67;;;21.90;41.30;;;;;;6247540;28;20033;-73
2021/01/14 10:18:27;;;;;;;6.30;1.55;;;21.90;41.60;;;;;;6247541;28;20022;-72
2021/01/14 10:21:28;;;;;;;9.70;1.30;;;21.80;41.70;;;;;;6246205;28;20021;-73
2021/01/14 10:24:30;;;;;;;13.75;1.05;;;21.80;42.00;;;;;;6249296;28;20044;-72
2021/01/14 10:27:31;;;;;;;14.77;1.45;;;21.90;42.40;;;;;;6249659;28;20033;-71
2021/01/14 10:30:37;;;;;;;10.00;1.40;;;21.90;42.90;;;;;;6246010;28;20030;-72
2021/01/14 10:33:38;;;;;;;10.70;1.60;;;22.00;42.20;;;;;;6244739;28;20372;-71
2021/01/14 10:36:43;;;;;;;4.85;1.42;;;22.00;42.30;;;;;;6247354;28;20218;-72
2021/01/14 10:39:44;;;;;;;6.28;1.40;;;22.00;42.20;;;;;;6246570;28;21092;-72
2021/01/14 10:42:49;;;;;;;4.70;1.60;;;22.00;41.90;;;;;;6246168;28;20387;-70
2021/01/14 10:45:50;;;;;;;2.47;1.23;;;22.00;42.10;;;;;;6247316;28;20117;-71
2021/01/14 10:48:51;;;;;;;3.58;1.40;;;22.00;41.90;;;;;;6247135;28;20472;-73
2021/01/14 10:51:52;;;;;;;11.50;1.33;;;22.10;42.00;;;;;;6245548;28;20044;-72
2021/01/14 10:55:00;;;;;;;8.95;1.20;;;22.10;41.90;;;;;;6245434;28;20021;-70
2021/01/14 10:58:03;;;;;;;6.63;1.17;;;22.10;41.90;;;;;;6245784;28;20515;-71
2021/01/14 11:01:17;;;;;;;4.88;1.33;;;22.10;41.90;;;;;;6247062;28;20057;-72
2021/01/14 11:04:17;;;;;;;4.20;1.00;;;22.10;42.00;;;;;;6244738;28;20061;-73
2021/01/14 11:07:17;;;;;;;2.53;1.30;;;22.10;41.90;;;;;;6245426;28;20590;-72
2021/01/14 11:10:24;;;;;;;4.25;1.33;;;22.10;41.90;;;;;;6246168;28;20041;-71
2021/01/14 11:13:38;;;;;;;5.28;1.15;;;22.10;42.00;;;;;;6246855;28;20041;-72
2021/01/14 11:16:38;;;;;;;13.18;1.83;;;22.00;41.60;;;;;;6246086;28;20034;-71
2021/01/14 11:19:39;;;;;;;10.27;1.60;;;22.00;41.40;;;;;;6246075;28;20029;-72
2021/01/14 11:22:39;;;;;;;8.40;1.30;;;22.00;41.40;;;;;;6245363;28;20077;-72
2021/01/14 11:25:42;;;;;;;2.88;1.33;;;22.00;41.40;;;;;;6245635;28;20034;-71
2021/01/14 11:28:42;;;;;;;4.03;1.50;;;22.00;41.40;;;;;;6242731;28;20064;-72
2021/01/14 11:31:42;;;;;;;10.45;2.08;;;22.00;41.40;;;;;;6244731;28;20033;-72
2021/01/14 11:34:43;;;;;;;4.85;2.00;;;22.10;41.40;;;;;;6245196;28;20038;-74
2021/01/14 11:37:44;;;;;;;18.67;2.42;;;21.80;39.80;;;;;;6244495;28;20037;-72
2021/01/14 11:40:48;;;;;;;28.45;2.63;;;21.80;40.80;;;;;;6244647;28;20499;-70
2021/01/14 11:43:49;;;;;;;15.48;2.08;;;21.90;40.90;;;;;;6245231;28;20495;-72
2021/01/14 11:46:49;;;;;;;18.38;2.00;;;22.00;40.90;;;;;;6246352;28;20041;-73
2021/01/14 11:49:50;;;;;;;27.08;2.42;;;22.00;41.30;;;;;;6246647;28;20048;-73
2021/01/14 11:52:51;;;;;;;20.45;2.40;;;22.10;41.30;;;;;;6244148;28;20042;-71
2021/01/14 11:55:51;;;;;;;12.52;2.00;;;22.10;41.30;;;;;;6244563;28;20120;-71
2021/01/14 11:58:52;;;;;;;6.28;1.60;;;22.00;41.00;;;;;;6245168;28;20176;-74
2021/01/14 12:01:56;;;;;;;13.82;1.98;;;22.00;41.10;;;;;;6244614;28;20029;-73
2021/01/14 12:04:56;;;;;;;24.83;2.20;;;22.00;41.60;;;;;;6243195;28;20404;-72
2021/01/14 12:07:57;;;;;;;9.27;1.58;;;22.00;41.50;;;;;;6243159;28;20115;-73
2021/01/14 12:10:58;;;;;;;4.95;1.85;;;22.00;41.30;;;;;;6241189;28;20496;-72
2021/01/14 12:13:58;;;;;;;9.88;2.08;;;22.00;41.30;;;;;;6241791;28;20084;-70
2021/01/14 12:16:59;;;;;;;9.82;2.50;;;22.00;41.70;;;;;;6244667;28;20075;-70
2021/01/14 12:20:00;;;;;;;9.32;1.65;;;22.00;41.30;;;;;;6244733;28;20022;-70
2021/01/14 12:23:01;;;;;;;17.35;2.25;;;22.10;41.40;;;;;;6244616;28;20044;-71
2021/01/14 12:26:02;;;;;;;14.15;2.15;;;22.10;41.40;;;;;;6243382;28;20087;-71
2021/01/14 12:29:03;;;;;;;4.68;1.70;;;22.10;41.70;;;;;;6244595;28;20039;-72
2021/01/14 12:32:05;;;;;;;9.00;2.00;;;22.00;41.60;;;;;;6218083;28;20053;-72
2021/01/14 12:35:07;;;;;;;10.75;1.90;;;22.00;41.40;;;;;;6219164;28;20049;-73
2021/01/14 12:38:07;;;;;;;7.90;2.28;;;22.00;41.40;;;;;;6219330;28;20496;-72
2021/01/14 12:41:08;;;;;;;8.40;2.40;;;22.00;41.00;;;;;;6220869;28;20029;-74
2021/01/14 12:44:08;;;;;;;7.75;1.75;;;22.10;41.10;;;;;;6220330;28;20543;-74
2021/01/14 12:47:09;;;;;;;15.85;1.90;;;22.10;41.30;;;;;;6220069;28;20042;-74
2021/01/14 12:50:10;;;;;;;10.70;2.47;;;22.00;42.30;;;;;;6221989;28;20682;-73
2021/01/14 12:53:11;;;;;;;13.10;2.40;;;22.10;41.80;;;;;;6219264;28;20473;-75
2021/01/14 12:56:15;;;;;;;6.18;1.85;;;22.10;41.50;;;;;;6216474;28;20037;-74
2021/01/14 12:59:16;;;;;;;10.43;2.63;;;22.10;41.60;;;;;;6220419;28;20076;-74
2021/01/14 13:02:16;;;;;;;6.93;1.80;;;22.10;41.80;;;;;;6218106;28;20555;-73
2021/01/14 13:05:18;;;;;;;7.20;2.08;;;22.10;41.90;;;;;;6219324;28;20086;-73
2021/01/14 13:08:19;;;;;;;6.93;1.92;;;22.10;41.50;;;;;;6220846;28;20476;-73
2021/01/14 13:11:20;;;;;;;17.05;2.00;;;22.10;41.50;;;;;;6218342;28;20041;-73
2021/01/14 13:14:20;;;;;;;20.17;2.00;;;22.10;41.80;;;;;;6220131;28;20038;-74
2021/01/14 13:17:21;;;;;;;8.25;1.98;;;22.10;42.10;;;;;;6219510;28;20488;-74
2021/01/14 13:20:22;;;;;;;14.88;2.13;;;22.10;41.80;;;;;;6219114;28;20046;-73
2021/01/14 13:23:22;;;;;;;5.82;1.70;;;22.00;41.80;;;;;;6218057;28;20040;-73
2021/01/14 13:26:23;;;;;;;4.00;1.70;;;22.00;41.90;;;;;;6216573;28;20121;-72
2021/01/14 13:29:23;;;;;;;6.30;1.77;;;22.00;41.90;;;;;;6219378;28;20046;-73
2021/01/14 13:32:24;;;;;;;5.32;1.75;;;22.00;41.90;;;;;;6218554;28;20437;-70
2021/01/14 13:35:25;;;;;;;4.88;1.73;;;22.00;42.40;;;;;;6223607;28;20046;-71
2021/01/14 13:38:26;;;;;;;4.95;2.15;;;22.10;42.20;;;;;;6224333;28;20030;-71
2021/01/14 13:41:26;;;;;;;5.63;1.63;;;22.00;41.70;;;;;;6219255;28;20400;-71
2021/01/14 13:44:27;;;;;;;5.20;1.67;;;21.80;41.70;;;;;;6222596;28;20033;-72
2021/01/14 13:47:29;;;;;;;11.32;1.60;;;21.90;42.40;;;;;;6223440;28;20037;-73
2021/01/14 13:50:30;;;;;;;12.32;1.90;;;22.00;42.30;;;;;;6223121;28;20041;-73
2021/01/14 13:53:34;;;;;;;4.97;1.90;;;22.00;42.20;;;;;;6221863;28;20088;-69
2021/01/14 13:56:36;;;;;;;16.03;1.60;;;22.00;42.70;;;;;;6223516;28;20029;-72
2021/01/14 13:59:36;;;;;;;12.32;2.03;;;22.10;42.30;;;;;;6222052;28;20045;-74
2021/01/14 14:02:37;;;;;;;10.18;1.73;;;22.00;42.30;;;;;;6223097;28;20443;-72
2021/01/14 14:05:41;;;;;;;4.97;1.60;;;22.00;42.70;;;;;;6222268;28;20451;-73
2021/01/14 14:08:42;;;;;;;9.93;1.63;;;22.10;42.40;;;;;;6223145;28;20042;-74
2021/01/14 14:11:43;;;;;;;5.45;1.48;;;22.00;42.50;;;;;;6222386;28;20041;-73
2021/01/14 14:14:44;;;;;;;8.05;1.55;;;22.00;42.50;;;;;;6223922;28;20034;-74
2021/01/14 14:17:44;;;;;;;6.50;2.03;;;22.00;42.60;;;;;;6226612;28;20041;-73
2021/01/14 14:20:45;;;;;;;8.10;2.42;;;22.00;42.90;;;;;;6225037;28;20480;-74
2021/01/14 14:23:46;;;;;;;11.40;2.95;;;21.90;40.00;;;;;;6222827;28;20038;-73
2021/01/14 14:26:47;;;;;;;16.35;2.67;;;21.80;40.10;;;;;;6222117;28;20030;-75
2021/01/14 14:29:47;;;;;;;5.15;2.63;;;22.00;40.00;;;;;;6223368;28;20041;-76
2021/01/14 14:32:48;;;;;;;10.35;2.50;;;22.10;39.70;;;;;;6223090;28;20099;-73
2021/01/14 14:35:49;;;;;;;10.88;2.55;;;22.20;39.60;;;;;;6223798;28;20431;-75
2021/01/14 14:38:50;;;;;;;6.45;2.67;;;22.30;40.20;;;;;;6223088;28;20037;-74
2021/01/14 14:41:51;;;;;;;4.82;2.10;;;22.30;39.80;;;;;;6221029;28;20440;-73
2021/01/14 14:44:51;;;;;;;10.82;2.42;;;22.30;39.90;;;;;;6223066;28;20076;-72
2021/01/14 14:47:52;;;;;;;7.45;2.47;;;22.30;40.40;;;;;;6222327;28;20034;-73
2021/01/14 14:50:52;;;;;;;2.38;1.80;;;22.20;40.10;;;;;;6223409;28;20038;-74
2021/01/14 14:53:53;;;;;;;6.07;2.53;;;22.30;40.10;;;;;;6220578;28;20041;-72
2021/01/14 14:56:54;;;;;;;5.07;2.20;;;22.30;39.90;;;;;;6221813;28;20030;-73
2021/01/14 14:59:54;;;;;;;6.70;2.05;;;22.40;40.00;;;;;;6222050;28;20123;-71
2021/01/14 15:02:59;;;;;;;4.28;2.10;;;22.40;39.90;;;;;;6213887;28;20133;-74
2021/01/14 15:06:00;;;;;;;10.05;2.22;;;22.40;40.00;;;;;;6221249;28;20062;-75
2021/01/14 15:09:00;;;;;;;5.15;2.65;;;22.40;39.80;;;;;;6222494;28;20435;-74
2021/01/14 15:12:01;;;;;;;4.68;2.30;;;22.30;39.70;;;;;;6222095;28;20022;-73
2021/01/14 15:15:02;;;;;;;9.90;2.85;;;22.30;40.00;;;;;;6222386;28;20040;-73
2021/01/14 15:18:03;;;;;;;6.70;2.60;;;22.40;40.10;;;;;;6220489;28;20488;-75
2021/01/14 15:21:04;;;;;;;8.10;2.72;;;22.40;40.20;;;;;;6222076;28;20041;-73
2021/01/14 15:24:05;;;;;;;7.82;2.60;;;22.30;39.40;;;;;;6222252;28;20034;-70
2021/01/14 15:27:05;;;;;;;4.63;2.13;;;22.30;39.60;;;;;;6221746;28;20331;-72
2021/01/14 15:30:06;;;;;;;7.97;2.53;;;22.30;39.50;;;;;;6218998;28;20077;-72
2021/01/14 15:33:07;;;;;;;4.82;2.58;;;22.40;39.70;;;;;;6219768;28;20038;-74
2021/01/14 15:36:07;;;;;;;7.70;2.67;;;22.40;39.50;;;;;;6220811;28;20503;-73
2021/01/14 15:39:08;;;;;;;6.53;1.90;;;22.40;39.60;;;;;;6220981;28;20037;-74
2021/01/14 15:42:12;;;;;;;10.68;2.63;;;22.40;39.60;;;;;;6218456;28;20037;-72
2021/01/14 15:45:12;;;;;;;5.78;2.70;;;22.40;39.70;;;;;;6220806;28;20065;-71
2021/01/14 15:48:13;;;;;;;10.13;2.70;;;22.50;39.80;;;;;;6220006;28;20570;-72
2021/01/14 15:51:14;;;;;;;8.80;2.55;;;22.50;39.60;;;;;;6220702;28;20041;-71